KSLB/SLB METAR and TAF weather

Enter ICAO airport designator
Station Type Date Time Source
KSLB METAR 2022/07/03 15:35 UTC NOAA

KSLB 031535Z AUTO 17012KT 9SM FEW019 24/20 A3007 RMK AO2


Station Type Date Time Source
KSLB Decoded METAR 2022/07/03 15:35 UTC NOAA

Storm Lake, IA, United States (KSLB) 42-36N 095-14W
Jul 03, 2022 - 11:35 AM EDT / 2022.07.03 1535 UTC
Wind: from the S (170 degrees) at 14 MPH (12 KT):0
Visibility: 9 mile(s):0
Sky conditions: mostly clear
Temperature: 75 F (24 C)
Dew Point: 68 F (20 C)
Relative Humidity: 78%
Pressure (altimeter): 30.07 in. Hg (1018 hPa)
ob: KSLB 031535Z AUTO 17012KT 9SM FEW019 24/20 A3007 RMK AO2
cycle: 15

Station Type Date Time Source
KSLB TAF UTC NOAA

Error!

Example: see airport list